CDT,Max TemperatureF,Mean TemperatureF,Min TemperatureF,Max Dew PointF,MeanDew PointF,Min DewpointF,Max Humidity, Mean Humidity, Min Humidity, Max Sea Level PressureIn, Mean Sea Level PressureIn, Min Sea Level PressureIn, Max VisibilityMiles, Mean VisibilityMiles, Min VisibilityMiles, Max Wind SpeedMPH, Mean Wind SpeedMPH, Max Gust SpeedMPH,PrecipitationIn, CloudCover, Events, WindDirDegrees
2012-10-1,66,54,41,48,44,41,100,70,40,29.93,29.87,29.81,10,10,3,9,2,,0.00,0,,26
2012-10-2,71,62,54,54,48,42,89,64,39,29.90,29.84,29.80,10,10,10,15,7,24,0.00,2,,2
2012-10-3,64,62,59,60,57,53,96,88,76,30.04,29.95,29.88,10,7,1,7,3,,0.02,7,Rain,99
2012-10-4,77,63,48,58,53,44,96,79,48,30.14,30.06,29.99,10,10,3,16,5,25,0.19,3,Rain-Thunderstorm,206
2012-10-5,47,42,37,44,34,26,88,68,49,30.19,30.13,30.08,10,10,10,9,4,,0.00,3,Rain,245
2012-10-6,50,40,30,31,28,26,85,62,43,30.19,30.14,30.08,10,10,10,10,5,20,0.00,4,,266
2012-10-7,50,40,29,31,26,19,94,59,30,30.19,30.16,30.13,10,10,10,13,2,17,0.00,3,,275
2012-10-8,59,42,26,34,29,25,99,61,31,30.16,30.09,30.01,10,10,5,17,5,26,0.00,0,,172
2012-10-9,66,54,41,42,38,34,95,60,33,30.01,29.92,29.81,10,10,5,18,9,31,0.22,2,Rain,191
2012-10-10,52,41,31,41,32,25,97,73,39,30.18,30.09,29.94,10,10,7,17,6,32,0.00,1,,253
2012-10-11,64,47,30,39,33,29,100,59,30,30.26,30.13,30.06,10,10,7,17,6,25,0.00,1,,201
2012-10-12,55,46,38,38,32,27,73,57,34,30.44,30.35,30.26,10,10,10,12,7,20,0.00,2,,47
2012-10-13,67,56,44,63,50,28,97,80,50,30.24,29.99,29.79,10,7,3,15,8,23,0.24,6,Rain-Thunderstorm,156
2012-10-14,71,60,48,63,57,44,96,87,69,29.80,29.63,29.44,10,8,2,24,10,34,0.40,7,Rain-Thunderstorm,202
2012-10-15,59,50,41,44,40,36,94,73,43,29.96,29.90,29.80,10,10,7,12,6,17,0.00,1,,284
2012-10-16,70,54,39,54,44,37,93,68,45,29.97,29.76,29.57,10,10,7,21,7,31,0.00,0,,135
2012-10-17,67,59,51,59,53,48,99,79,58,29.58,29.47,29.28,10,9,2,18,12,26,0.58,5,Rain-Thunderstorm,168
2012-10-18,53,48,43,51,41,35,97,78,52,29.52,29.44,29.36,10,10,7,17,9,25,0.06,6,Rain,199
2012-10-19,51,47,42,45,43,40,100,89,73,29.66,29.52,29.43,10,10,3,12,5,16,0.07,7,Rain,233
2012-10-20,56,46,36,45,40,36,100,87,56,29.94,29.81,29.66,10,8,0,9,4,,0.00,3,Fog,235
2012-10-21,69,51,33,50,44,34,100,77,46,30.03,29.98,29.94,10,8,0,13,3,17,0.00,0,Fog,118
2012-10-22,64,58,51,63,56,48,100,91,77,29.98,29.93,29.89,10,9,3,12,5,17,0.18,5,Rain-Thunderstorm,137
2012-10-23,70,64,59,65,61,58,100,89,77,29.94,29.91,29.88,10,9,2,9,3,,0.14,6,Rain-Thunderstorm,147
2012-10-24,78,68,59,65,61,58,94,79,63,29.95,29.90,29.86,10,10,10,16,7,24,0.00,1,,157
2012-10-25,75,59,43,63,56,38,95,77,62,30.07,29.82,29.70,10,10,2,22,13,33,0.41,4,Rain-Thunderstorm,190
2012-10-26,49,43,37,38,31,28,81,63,44,30.32,30.26,30.07,10,10,10,13,7,22,0.00,2,,315
2012-10-27,48,40,32,31,28,26,82,65,44,30.32,30.28,30.23,10,10,10,12,5,17,0.00,0,,336
2012-10-28,49,41,34,33,30,26,81,65,47,30.27,30.25,30.23,10,10,10,16,8,25,0.00,2,,344
2012-10-29,52,42,32,34,30,23,90,65,33,30.27,30.21,30.04,10,10,10,16,8,25,0.00,0,,335
2012-10-30,46,42,37,28,26,22,70,55,44,30.04,29.86,29.78,10,10,10,18,11,32,0.00,1,,317
2012-10-31,48,40,32,31,26,20,75,60,47,29.87,29.83,29.79,10,10,10,13,8,24,0.00,1,,296